sensor_id;sensor_type;location;lat;lon;timestamp;P1;durP1;ratioP1;P2;durP2;ratioP2
56429;SDS011;42332;52.136;20.666;2023-12-20T00:01:15;21.83;;;7.93;;
56429;SDS011;42332;52.136;20.666;2023-12-20T00:03:41;18.33;;;9.05;;
56429;SDS011;42332;52.136;20.666;2023-12-20T00:06:06;25.15;;;9.95;;
56429;SDS011;42332;52.136;20.666;2023-12-20T00:08:31;20.33;;;9.77;;
56429;SDS011;42332;52.136;20.666;2023-12-20T00:10:57;19.50;;;9.38;;
56429;SDS011;42332;52.136;20.666;2023-12-20T00:13:22;20.38;;;8.82;;
56429;SDS011;42332;52.136;20.666;2023-12-20T00:15:47;19.52;;;8.88;;
56429;SDS011;42332;52.136;20.666;2023-12-20T00:18:13;18.42;;;8.23;;
56429;SDS011;42332;52.136;20.666;2023-12-20T00:20:38;22.42;;;9.05;;
56429;SDS011;42332;52.136;20.666;2023-12-20T00:23:03;16.98;;;6.90;;
56429;SDS011;42332;52.136;20.666;2023-12-20T00:25:29;17.08;;;7.25;;
56429;SDS011;42332;52.136;20.666;2023-12-20T00:27:54;22.77;;;10.05;;
56429;SDS011;42332;52.136;20.666;2023-12-20T00:30:20;14.50;;;6.85;;
56429;SDS011;42332;52.136;20.666;2023-12-20T00:32:45;19.38;;;7.75;;
56429;SDS011;42332;52.136;20.666;2023-12-20T00:35:13;17.80;;;8.30;;
56429;SDS011;42332;52.136;20.666;2023-12-20T00:37:39;13.50;;;7.95;;
56429;SDS011;42332;52.136;20.666;2023-12-20T00:40:05;13.45;;;7.15;;
56429;SDS011;42332;52.136;20.666;2023-12-20T00:42:31;8.23;;;4.75;;
56429;SDS011;42332;52.136;20.666;2023-12-20T00:44:56;19.80;;;8.80;;
56429;SDS011;42332;52.136;20.666;2023-12-20T00:47:22;17.48;;;7.82;;
56429;SDS011;42332;52.136;20.666;2023-12-20T00:49:47;20.55;;;7.00;;
56429;SDS011;42332;52.136;20.666;2023-12-20T00:52:12;12.00;;;6.45;;
56429;SDS011;42332;52.136;20.666;2023-12-20T00:54:39;16.75;;;7.82;;
56429;SDS011;42332;52.136;20.666;2023-12-20T00:57:04;16.50;;;7.88;;
56429;SDS011;42332;52.136;20.666;2023-12-20T00:59:29;20.60;;;8.05;;
56429;SDS011;42332;52.136;20.666;2023-12-20T01:01:55;16.98;;;7.68;;
56429;SDS011;42332;52.136;20.666;2023-12-20T01:04:20;14.90;;;6.57;;
56429;SDS011;42332;52.136;20.666;2023-12-20T01:06:46;17.67;;;7.88;;
56429;SDS011;42332;52.136;20.666;2023-12-20T01:09:11;18.05;;;8.25;;
56429;SDS011;42332;52.136;20.666;2023-12-20T01:11:37;14.30;;;6.88;;
56429;SDS011;42332;52.136;20.666;2023-12-20T01:14:02;19.15;;;8.05;;
56429;SDS011;42332;52.136;20.666;2023-12-20T01:16:28;17.58;;;8.15;;
56429;SDS011;42332;52.136;20.666;2023-12-20T01:18:53;21.88;;;8.32;;
56429;SDS011;42332;52.136;20.666;2023-12-20T01:21:18;14.80;;;7.03;;
56429;SDS011;42332;52.136;20.666;2023-12-20T01:23:44;19.13;;;8.55;;
56429;SDS011;42332;52.136;20.666;2023-12-20T01:26:09;19.83;;;7.90;;
56429;SDS011;42332;52.136;20.666;2023-12-20T01:28:34;17.88;;;8.00;;
56429;SDS011;42332;52.136;20.666;2023-12-20T01:31:00;11.07;;;5.43;;
56429;SDS011;42332;52.136;20.666;2023-12-20T01:33:25;15.50;;;7.10;;
56429;SDS011;42332;52.136;20.666;2023-12-20T01:35:50;13.32;;;5.70;;
56429;SDS011;42332;52.136;20.666;2023-12-20T01:38:16;16.63;;;7.00;;
56429;SDS011;42332;52.136;20.666;2023-12-20T01:40:43;9.00;;;4.97;;
56429;SDS011;42332;52.136;20.666;2023-12-20T01:48:26;18.13;;;7.45;;
56429;SDS011;42332;52.136;20.666;2023-12-20T01:50:52;18.88;;;7.70;;
56429;SDS011;42332;52.136;20.666;2023-12-20T01:53:19;10.90;;;4.88;;
56429;SDS011;42332;52.136;20.666;2023-12-20T01:55:45;14.32;;;6.35;;
56429;SDS011;42332;52.136;20.666;2023-12-20T01:58:12;9.18;;;5.20;;
56429;SDS011;42332;52.136;20.666;2023-12-20T02:00:38;17.00;;;6.88;;
56429;SDS011;42332;52.136;20.666;2023-12-20T02:03:04;18.52;;;7.80;;
56429;SDS011;42332;52.136;20.666;2023-12-20T02:05:30;14.35;;;7.72;;
56429;SDS011;42332;52.136;20.666;2023-12-20T02:07:56;14.15;;;6.40;;
56429;SDS011;42332;52.136;20.666;2023-12-20T02:10:21;15.03;;;7.07;;
56429;SDS011;42332;52.136;20.666;2023-12-20T02:12:47;18.90;;;8.88;;
56429;SDS011;42332;52.136;20.666;2023-12-20T02:15:12;16.48;;;7.78;;
56429;SDS011;42332;52.136;20.666;2023-12-20T02:17:38;12.27;;;7.18;;
56429;SDS011;42332;52.136;20.666;2023-12-20T02:20:04;9.60;;;5.30;;
56429;SDS011;42332;52.136;20.666;2023-12-20T02:22:30;11.45;;;5.70;;
56429;SDS011;42332;52.136;20.666;2023-12-20T02:24:56;8.55;;;4.38;;
56429;SDS011;42332;52.136;20.666;2023-12-20T02:27:21;17.73;;;8.05;;
56429;SDS011;42332;52.136;20.666;2023-12-20T02:29:48;12.70;;;6.78;;
56429;SDS011;42332;52.136;20.666;2023-12-20T02:32:13;10.27;;;4.72;;
56429;SDS011;42332;52.136;20.666;2023-12-20T02:34:39;15.77;;;6.47;;
56429;SDS011;42332;52.136;20.666;2023-12-20T02:37:04;17.38;;;7.30;;
56429;SDS011;42332;52.136;20.666;2023-12-20T02:39:29;11.75;;;5.18;;
56429;SDS011;42332;52.136;20.666;2023-12-20T02:41:55;11.57;;;5.50;;
56429;SDS011;42332;52.136;20.666;2023-12-20T02:44:20;14.80;;;7.22;;
56429;SDS011;42332;52.136;20.666;2023-12-20T02:46:45;11.68;;;5.70;;
56429;SDS011;42332;52.136;20.666;2023-12-20T02:49:11;15.38;;;6.25;;
56429;SDS011;42332;52.136;20.666;2023-12-20T02:51:36;15.82;;;7.13;;
56429;SDS011;42332;52.136;20.666;2023-12-20T02:54:03;13.77;;;7.18;;
56429;SDS011;42332;52.136;20.666;2023-12-20T02:56:29;13.88;;;6.25;;
56429;SDS011;42332;52.136;20.666;2023-12-20T02:58:54;14.30;;;5.80;;
56429;SDS011;42332;52.136;20.666;2023-12-20T03:01:20;12.35;;;6.07;;
56429;SDS011;42332;52.136;20.666;2023-12-20T03:03:45;9.25;;;4.22;;
56429;SDS011;42332;52.136;20.666;2023-12-20T03:06:10;10.98;;;4.93;;
56429;SDS011;42332;52.136;20.666;2023-12-20T03:08:36;7.65;;;3.92;;
56429;SDS011;42332;52.136;20.666;2023-12-20T03:11:02;13.75;;;5.15;;
56429;SDS011;42332;52.136;20.666;2023-12-20T03:13:27;8.68;;;4.47;;
56429;SDS011;42332;52.136;20.666;2023-12-20T03:15:52;9.85;;;4.75;;
56429;SDS011;42332;52.136;20.666;2023-12-20T03:18:18;4.45;;;2.67;;
56429;SDS011;42332;52.136;20.666;2023-12-20T03:20:43;6.93;;;3.67;;
56429;SDS011;42332;52.136;20.666;2023-12-20T03:23:08;5.80;;;2.70;;
56429;SDS011;42332;52.136;20.666;2023-12-20T03:25:34;6.28;;;3.35;;
56429;SDS011;42332;52.136;20.666;2023-12-20T03:27:59;6.43;;;3.50;;
56429;SDS011;42332;52.136;20.666;2023-12-20T03:30:25;7.45;;;3.58;;
56429;SDS011;42332;52.136;20.666;2023-12-20T03:32:51;8.00;;;4.00;;
56429;SDS011;42332;52.136;20.666;2023-12-20T03:35:16;10.68;;;4.93;;
56429;SDS011;42332;52.136;20.666;2023-12-20T03:37:42;8.82;;;4.55;;
56429;SDS011;42332;52.136;20.666;2023-12-20T03:40:07;11.32;;;5.35;;
56429;SDS011;42332;52.136;20.666;2023-12-20T03:42:33;13.43;;;4.97;;
56429;SDS011;42332;52.136;20.666;2023-12-20T03:44:58;13.85;;;5.90;;
56429;SDS011;42332;52.136;20.666;2023-12-20T03:47:23;10.48;;;4.43;;
56429;SDS011;42332;52.136;20.666;2023-12-20T03:49:49;10.90;;;5.03;;
56429;SDS011;42332;52.136;20.666;2023-12-20T03:52:14;10.07;;;4.40;;
56429;SDS011;42332;52.136;20.666;2023-12-20T03:54:40;7.85;;;3.75;;
56429;SDS011;42332;52.136;20.666;2023-12-20T03:57:07;10.65;;;4.95;;
56429;SDS011;42332;52.136;20.666;2023-12-20T03:59:36;9.68;;;4.45;;
56429;SDS011;42332;52.136;20.666;2023-12-20T04:02:02;11.18;;;4.63;;
56429;SDS011;42332;52.136;20.666;2023-12-20T04:04:27;9.38;;;4.38;;
56429;SDS011;42332;52.136;20.666;2023-12-20T04:06:53;9.65;;;4.55;;
56429;SDS011;42332;52.136;20.666;2023-12-20T04:09:18;8.32;;;3.53;;
56429;SDS011;42332;52.136;20.666;2023-12-20T04:11:43;8.13;;;3.95;;
56429;SDS011;42332;52.136;20.666;2023-12-20T04:14:09;10.63;;;3.83;;
56429;SDS011;42332;52.136;20.666;2023-12-20T04:16:35;5.90;;;2.80;;
56429;SDS011;42332;52.136;20.666;2023-12-20T04:19:00;7.13;;;3.55;;
56429;SDS011;42332;52.136;20.666;2023-12-20T04:21:26;8.70;;;3.08;;
56429;SDS011;42332;52.136;20.666;2023-12-20T04:23:51;8.63;;;4.28;;
56429;SDS011;42332;52.136;20.666;2023-12-20T04:26:16;9.88;;;4.50;;
56429;SDS011;42332;52.136;20.666;2023-12-20T04:28:42;10.25;;;4.03;;
56429;SDS011;42332;52.136;20.666;2023-12-20T04:31:07;8.20;;;3.53;;
56429;SDS011;42332;52.136;20.666;2023-12-20T04:33:33;10.43;;;4.65;;
56429;SDS011;42332;52.136;20.666;2023-12-20T04:35:58;12.27;;;5.68;;
56429;SDS011;42332;52.136;20.666;2023-12-20T04:38:25;12.38;;;5.60;;
56429;SDS011;42332;52.136;20.666;2023-12-20T04:40:50;11.30;;;5.45;;
56429;SDS011;42332;52.136;20.666;2023-12-20T04:43:16;11.95;;;4.78;;
56429;SDS011;42332;52.136;20.666;2023-12-20T04:45:41;11.15;;;5.90;;
56429;SDS011;42332;52.136;20.666;2023-12-20T04:48:07;15.82;;;6.55;;
56429;SDS011;42332;52.136;20.666;2023-12-20T04:50:32;8.75;;;4.72;;
56429;SDS011;42332;52.136;20.666;2023-12-20T04:52:58;12.20;;;6.07;;
56429;SDS011;42332;52.136;20.666;2023-12-20T04:55:23;6.88;;;3.88;;
56429;SDS011;42332;52.136;20.666;2023-12-20T04:57:49;10.88;;;5.32;;
56429;SDS011;42332;52.136;20.666;2023-12-20T05:00:14;13.25;;;7.03;;
56429;SDS011;42332;52.136;20.666;2023-12-20T05:02:40;18.33;;;8.95;;
56429;SDS011;42332;52.136;20.666;2023-12-20T05:05:06;18.30;;;10.07;;
56429;SDS011;42332;52.136;20.666;2023-12-20T05:07:31;15.38;;;8.32;;
56429;SDS011;42332;52.136;20.666;2023-12-20T05:09:56;11.00;;;5.18;;
56429;SDS011;42332;52.136;20.666;2023-12-20T05:12:22;7.57;;;4.43;;
56429;SDS011;42332;52.136;20.666;2023-12-20T05:14:47;11.68;;;5.00;;
56429;SDS011;42332;52.136;20.666;2023-12-20T05:17:12;9.52;;;4.85;;
56429;SDS011;42332;52.136;20.666;2023-12-20T05:19:38;13.30;;;6.00;;
56429;SDS011;42332;52.136;20.666;2023-12-20T05:22:03;8.75;;;4.43;;
56429;SDS011;42332;52.136;20.666;2023-12-20T05:24:29;9.85;;;5.00;;
56429;SDS011;42332;52.136;20.666;2023-12-20T05:26:54;16.52;;;6.50;;
56429;SDS011;42332;52.136;20.666;2023-12-20T05:29:20;11.30;;;5.57;;
56429;SDS011;42332;52.136;20.666;2023-12-20T05:31:45;10.50;;;4.93;;
56429;SDS011;42332;52.136;20.666;2023-12-20T05:34:10;11.35;;;4.88;;
56429;SDS011;42332;52.136;20.666;2023-12-20T05:36:36;11.23;;;3.92;;
56429;SDS011;42332;52.136;20.666;2023-12-20T05:39:02;8.45;;;3.63;;
56429;SDS011;42332;52.136;20.666;2023-12-20T05:41:30;10.13;;;4.82;;
56429;SDS011;42332;52.136;20.666;2023-12-20T05:43:56;14.27;;;5.82;;
56429;SDS011;42332;52.136;20.666;2023-12-20T05:46:23;24.02;;;6.80;;
56429;SDS011;42332;52.136;20.666;2023-12-20T05:48:49;23.83;;;7.70;;
56429;SDS011;42332;52.136;20.666;2023-12-20T05:51:14;14.98;;;6.25;;
56429;SDS011;42332;52.136;20.666;2023-12-20T05:53:40;24.15;;;6.57;;
56429;SDS011;42332;52.136;20.666;2023-12-20T05:56:05;39.65;;;9.18;;
56429;SDS011;42332;52.136;20.666;2023-12-20T05:58:32;34.83;;;8.18;;
56429;SDS011;42332;52.136;20.666;2023-12-20T06:00:58;21.63;;;6.13;;
56429;SDS011;42332;52.136;20.666;2023-12-20T06:03:24;43.15;;;8.05;;
56429;SDS011;42332;52.136;20.666;2023-12-20T06:05:49;9.50;;;4.95;;
56429;SDS011;42332;52.136;20.666;2023-12-20T06:08:14;13.88;;;6.05;;
56429;SDS011;42332;52.136;20.666;2023-12-20T06:10:40;12.07;;;5.47;;
56429;SDS011;42332;52.136;20.666;2023-12-20T06:13:05;29.92;;;7.22;;
56429;SDS011;42332;52.136;20.666;2023-12-20T06:15:31;19.90;;;6.70;;
56429;SDS011;42332;52.136;20.666;2023-12-20T06:17:57;16.85;;;4.97;;
56429;SDS011;42332;52.136;20.666;2023-12-20T06:20:22;13.82;;;5.53;;
56429;SDS011;42332;52.136;20.666;2023-12-20T06:22:48;18.83;;;7.00;;
56429;SDS011;42332;52.136;20.666;2023-12-20T06:25:13;40.17;;;8.70;;
56429;SDS011;42332;52.136;20.666;2023-12-20T06:27:39;35.08;;;7.22;;
56429;SDS011;42332;52.136;20.666;2023-12-20T06:30:06;26.98;;;7.80;;
56429;SDS011;42332;52.136;20.666;2023-12-20T06:32:32;13.00;;;5.00;;
56429;SDS011;42332;52.136;20.666;2023-12-20T06:34:57;18.45;;;7.45;;
56429;SDS011;42332;52.136;20.666;2023-12-20T06:37:22;33.05;;;8.90;;
56429;SDS011;42332;52.136;20.666;2023-12-20T06:39:48;23.05;;;6.55;;
56429;SDS011;42332;52.136;20.666;2023-12-20T06:42:13;13.50;;;5.68;;
56429;SDS011;42332;52.136;20.666;2023-12-20T06:44:38;22.73;;;8.02;;
56429;SDS011;42332;52.136;20.666;2023-12-20T06:47:04;19.13;;;6.88;;
56429;SDS011;42332;52.136;20.666;2023-12-20T06:49:30;14.07;;;5.57;;
56429;SDS011;42332;52.136;20.666;2023-12-20T06:51:55;12.50;;;6.32;;
56429;SDS011;42332;52.136;20.666;2023-12-20T06:54:20;13.73;;;6.10;;
56429;SDS011;42332;52.136;20.666;2023-12-20T06:56:46;12.25;;;5.57;;
56429;SDS011;42332;52.136;20.666;2023-12-20T06:59:11;15.25;;;5.35;;
56429;SDS011;42332;52.136;20.666;2023-12-20T07:01:37;12.88;;;5.97;;
56429;SDS011;42332;52.136;20.666;2023-12-20T07:04:03;15.52;;;6.63;;
56429;SDS011;42332;52.136;20.666;2023-12-20T07:06:28;11.60;;;4.90;;
56429;SDS011;42332;52.136;20.666;2023-12-20T07:08:53;16.50;;;5.78;;
56429;SDS011;42332;52.136;20.666;2023-12-20T07:11:19;11.60;;;4.97;;
56429;SDS011;42332;52.136;20.666;2023-12-20T07:13:44;14.68;;;5.75;;
56429;SDS011;42332;52.136;20.666;2023-12-20T07:16:10;13.70;;;5.78;;
56429;SDS011;42332;52.136;20.666;2023-12-20T07:18:35;17.10;;;5.65;;
56429;SDS011;42332;52.136;20.666;2023-12-20T07:21:00;9.98;;;3.92;;
56429;SDS011;42332;52.136;20.666;2023-12-20T07:23:26;8.57;;;3.85;;
56429;SDS011;42332;52.136;20.666;2023-12-20T07:25:51;10.60;;;4.80;;
56429;SDS011;42332;52.136;20.666;2023-12-20T07:28:17;7.20;;;3.42;;
56429;SDS011;42332;52.136;20.666;2023-12-20T07:30:42;11.07;;;4.50;;
56429;SDS011;42332;52.136;20.666;2023-12-20T07:33:08;10.77;;;3.83;;
56429;SDS011;42332;52.136;20.666;2023-12-20T07:35:34;10.25;;;4.85;;
56429;SDS011;42332;52.136;20.666;2023-12-20T07:38:00;13.77;;;6.13;;
56429;SDS011;42332;52.136;20.666;2023-12-20T07:40:25;10.23;;;5.70;;
56429;SDS011;42332;52.136;20.666;2023-12-20T07:42:50;40.00;;;17.88;;
56429;SDS011;42332;52.136;20.666;2023-12-20T07:45:19;57.45;;;25.83;;
56429;SDS011;42332;52.136;20.666;2023-12-20T07:47:44;20.50;;;11.05;;
56429;SDS011;42332;52.136;20.666;2023-12-20T07:50:10;19.10;;;9.52;;
56429;SDS011;42332;52.136;20.666;2023-12-20T07:52:35;12.48;;;5.82;;
56429;SDS011;42332;52.136;20.666;2023-12-20T07:55:00;23.23;;;14.00;;
56429;SDS011;42332;52.136;20.666;2023-12-20T07:57:28;22.60;;;8.80;;
56429;SDS011;42332;52.136;20.666;2023-12-20T07:59:54;12.20;;;6.03;;
56429;SDS011;42332;52.136;20.666;2023-12-20T08:02:19;9.13;;;3.85;;
56429;SDS011;42332;52.136;20.666;2023-12-20T08:04:45;5.55;;;2.85;;
56429;SDS011;42332;52.136;20.666;2023-12-20T08:07:10;5.13;;;2.20;;
56429;SDS011;42332;52.136;20.666;2023-12-20T08:09:35;8.82;;;4.25;;
56429;SDS011;42332;52.136;20.666;2023-12-20T08:12:01;9.43;;;3.83;;
56429;SDS011;42332;52.136;20.666;2023-12-20T08:14:27;11.57;;;4.93;;
56429;SDS011;42332;52.136;20.666;2023-12-20T08:16:53;7.78;;;3.33;;
56429;SDS011;42332;52.136;20.666;2023-12-20T08:19:18;8.70;;;3.97;;
56429;SDS011;42332;52.136;20.666;2023-12-20T08:21:43;10.10;;;4.15;;
56429;SDS011;42332;52.136;20.666;2023-12-20T08:24:09;7.15;;;2.85;;
56429;SDS011;42332;52.136;20.666;2023-12-20T08:26:34;14.65;;;4.25;;
56429;SDS011;42332;52.136;20.666;2023-12-20T08:29:00;8.43;;;3.20;;
56429;SDS011;42332;52.136;20.666;2023-12-20T08:31:25;13.05;;;4.03;;
56429;SDS011;42332;52.136;20.666;2023-12-20T08:33:51;9.32;;;3.97;;
56429;SDS011;42332;52.136;20.666;2023-12-20T08:36:19;7.75;;;3.63;;
56429;SDS011;42332;52.136;20.666;2023-12-20T08:38:46;14.60;;;5.75;;
56429;SDS011;42332;52.136;20.666;2023-12-20T08:41:12;11.18;;;4.70;;
56429;SDS011;42332;52.136;20.666;2023-12-20T08:43:37;11.05;;;4.90;;
56429;SDS011;42332;52.136;20.666;2023-12-20T08:46:05;6.80;;;3.30;;
56429;SDS011;42332;52.136;20.666;2023-12-20T08:48:31;9.25;;;4.15;;
56429;SDS011;42332;52.136;20.666;2023-12-20T08:50:56;11.60;;;4.32;;
56429;SDS011;42332;52.136;20.666;2023-12-20T08:53:21;12.73;;;5.50;;
56429;SDS011;42332;52.136;20.666;2023-12-20T08:55:47;14.68;;;4.35;;
56429;SDS011;42332;52.136;20.666;2023-12-20T08:58:13;8.35;;;3.80;;
56429;SDS011;42332;52.136;20.666;2023-12-20T09:00:38;10.40;;;4.63;;
56429;SDS011;42332;52.136;20.666;2023-12-20T09:03:04;12.15;;;5.38;;
56429;SDS011;42332;52.136;20.666;2023-12-20T09:05:29;10.32;;;4.63;;
56429;SDS011;42332;52.136;20.666;2023-12-20T09:07:55;12.98;;;4.65;;
56429;SDS011;42332;52.136;20.666;2023-12-20T09:10:20;6.05;;;3.33;;
56429;SDS011;42332;52.136;20.666;2023-12-20T09:12:47;10.10;;;3.63;;
56429;SDS011;42332;52.136;20.666;2023-12-20T09:15:13;8.10;;;3.60;;
56429;SDS011;42332;52.136;20.666;2023-12-20T09:17:38;7.32;;;3.28;;
56429;SDS011;42332;52.136;20.666;2023-12-20T09:20:05;6.72;;;2.90;;
56429;SDS011;42332;52.136;20.666;2023-12-20T09:22:33;8.20;;;3.78;;
56429;SDS011;42332;52.136;20.666;2023-12-20T09:24:58;7.63;;;3.40;;
56429;SDS011;42332;52.136;20.666;2023-12-20T09:27:24;10.95;;;5.50;;
56429;SDS011;42332;52.136;20.666;2023-12-20T09:29:49;11.75;;;5.10;;
56429;SDS011;42332;52.136;20.666;2023-12-20T09:32:15;8.05;;;3.58;;
56429;SDS011;42332;52.136;20.666;2023-12-20T09:34:40;11.50;;;4.53;;
56429;SDS011;42332;52.136;20.666;2023-12-20T09:37:06;9.65;;;3.35;;
56429;SDS011;42332;52.136;20.666;2023-12-20T09:39:32;10.95;;;4.80;;
56429;SDS011;42332;52.136;20.666;2023-12-20T09:42:02;10.25;;;4.68;;
56429;SDS011;42332;52.136;20.666;2023-12-20T09:44:29;10.25;;;3.03;;
56429;SDS011;42332;52.136;20.666;2023-12-20T09:46:55;8.57;;;3.72;;
56429;SDS011;42332;52.136;20.666;2023-12-20T09:49:21;7.72;;;3.70;;
56429;SDS011;42332;52.136;20.666;2023-12-20T09:51:47;8.73;;;4.15;;
56429;SDS011;42332;52.136;20.666;2023-12-20T09:54:19;11.73;;;3.95;;
56429;SDS011;42332;52.136;20.666;2023-12-20T09:56:45;11.95;;;4.03;;
56429;SDS011;42332;52.136;20.666;2023-12-20T09:59:11;10.20;;;3.83;;
56429;SDS011;42332;52.136;20.666;2023-12-20T10:01:37;6.72;;;3.28;;
56429;SDS011;42332;52.136;20.666;2023-12-20T10:04:05;8.20;;;3.72;;
56429;SDS011;42332;52.136;20.666;2023-12-20T10:06:36;7.43;;;3.97;;
56429;SDS011;42332;52.136;20.666;2023-12-20T10:09:01;7.68;;;3.20;;
56429;SDS011;42332;52.136;20.666;2023-12-20T10:11:27;9.80;;;4.65;;
56429;SDS011;42332;52.136;20.666;2023-12-20T10:13:58;4.75;;;2.35;;
56429;SDS011;42332;52.136;20.666;2023-12-20T10:16:25;9.55;;;4.00;;
56429;SDS011;42332;52.136;20.666;2023-12-20T10:18:51;7.60;;;3.35;;
56429;SDS011;42332;52.136;20.666;2023-12-20T10:21:20;7.35;;;3.00;;
56429;SDS011;42332;52.136;20.666;2023-12-20T10:23:46;8.07;;;3.17;;
56429;SDS011;42332;52.136;20.666;2023-12-20T10:26:21;7.30;;;2.80;;
56429;SDS011;42332;52.136;20.666;2023-12-20T10:28:49;8.98;;;4.53;;
56429;SDS011;42332;52.136;20.666;2023-12-20T10:31:31;9.93;;;3.70;;
56429;SDS011;42332;52.136;20.666;2023-12-20T10:33:58;10.88;;;3.58;;
56429;SDS011;42332;52.136;20.666;2023-12-20T10:36:27;10.10;;;4.05;;
56429;SDS011;42332;52.136;20.666;2023-12-20T10:38:54;16.20;;;3.95;;
56429;SDS011;42332;52.136;20.666;2023-12-20T10:41:28;7.38;;;3.53;;
56429;SDS011;42332;52.136;20.666;2023-12-20T10:43:58;7.85;;;3.50;;
56429;SDS011;42332;52.136;20.666;2023-12-20T10:46:26;20.95;;;8.27;;
56429;SDS011;42332;52.136;20.666;2023-12-20T10:48:53;8.27;;;3.42;;
56429;SDS011;42332;52.136;20.666;2023-12-20T10:51:19;12.43;;;4.90;;
56429;SDS011;42332;52.136;20.666;2023-12-20T10:53:46;9.38;;;3.22;;
56429;SDS011;42332;52.136;20.666;2023-12-20T10:56:14;9.23;;;3.63;;
56429;SDS011;42332;52.136;20.666;2023-12-20T10:58:42;13.23;;;4.40;;
56429;SDS011;42332;52.136;20.666;2023-12-20T11:01:12;9.52;;;4.10;;
56429;SDS011;42332;52.136;20.666;2023-12-20T11:03:38;8.90;;;4.28;;
56429;SDS011;42332;52.136;20.666;2023-12-20T11:14:46;8.00;;;3.72;;
56429;SDS011;42332;52.136;20.666;2023-12-20T11:17:13;4.93;;;2.65;;
56429;SDS011;42332;52.136;20.666;2023-12-20T11:22:17;11.80;;;4.43;;
56429;SDS011;42332;52.136;20.666;2023-12-20T11:24:44;5.40;;;3.10;;
56429;SDS011;42332;52.136;20.666;2023-12-20T11:27:12;12.07;;;4.53;;
56429;SDS011;42332;52.136;20.666;2023-12-20T11:29:38;9.20;;;4.45;;
56429;SDS011;42332;52.136;20.666;2023-12-20T11:32:49;7.88;;;3.65;;
56429;SDS011;42332;52.136;20.666;2023-12-20T11:34:57;9.90;;;4.05;;
56429;SDS011;42332;52.136;20.666;2023-12-20T11:37:30;6.90;;;3.22;;
56429;SDS011;42332;52.136;20.666;2023-12-20T11:40:05;9.13;;;3.92;;
56429;SDS011;42332;52.136;20.666;2023-12-20T11:42:38;9.80;;;4.20;;
56429;SDS011;42332;52.136;20.666;2023-12-20T11:45:05;12.35;;;4.53;;
56429;SDS011;42332;52.136;20.666;2023-12-20T11:47:33;10.60;;;4.07;;
56429;SDS011;42332;52.136;20.666;2023-12-20T11:49:59;8.05;;;3.85;;
56429;SDS011;42332;52.136;20.666;2023-12-20T11:52:28;9.38;;;4.13;;
56429;SDS011;42332;52.136;20.666;2023-12-20T11:54:54;5.68;;;2.70;;
56429;SDS011;42332;52.136;20.666;2023-12-20T11:57:19;7.93;;;3.35;;
56429;SDS011;42332;52.136;20.666;2023-12-20T11:59:44;6.82;;;3.38;;
56429;SDS011;42332;52.136;20.666;2023-12-20T12:02:11;8.10;;;3.80;;
56429;SDS011;42332;52.136;20.666;2023-12-20T12:04:36;8.90;;;4.10;;
56429;SDS011;42332;52.136;20.666;2023-12-20T12:07:02;11.65;;;3.28;;
56429;SDS011;42332;52.136;20.666;2023-12-20T12:09:28;10.68;;;5.38;;
56429;SDS011;42332;52.136;20.666;2023-12-20T12:11:53;9.27;;;4.55;;
56429;SDS011;42332;52.136;20.666;2023-12-20T12:14:19;10.25;;;4.53;;
56429;SDS011;42332;52.136;20.666;2023-12-20T12:16:45;8.48;;;4.53;;
56429;SDS011;42332;52.136;20.666;2023-12-20T12:19:23;9.10;;;4.68;;
56429;SDS011;42332;52.136;20.666;2023-12-20T12:21:49;7.18;;;2.65;;
56429;SDS011;42332;52.136;20.666;2023-12-20T12:24:16;13.48;;;5.55;;
56429;SDS011;42332;52.136;20.666;2023-12-20T12:26:49;4.00;;;2.35;;
56429;SDS011;42332;52.136;20.666;2023-12-20T12:29:15;8.55;;;3.20;;
56429;SDS011;42332;52.136;20.666;2023-12-20T12:31:40;13.90;;;5.57;;
56429;SDS011;42332;52.136;20.666;2023-12-20T12:34:06;24.60;;;8.63;;
56429;SDS011;42332;52.136;20.666;2023-12-20T12:36:34;17.15;;;7.07;;
56429;SDS011;42332;52.136;20.666;2023-12-20T12:39:02;8.00;;;4.30;;
56429;SDS011;42332;52.136;20.666;2023-12-20T12:41:29;27.60;;;10.25;;
56429;SDS011;42332;52.136;20.666;2023-12-20T12:43:55;9.48;;;4.18;;
56429;SDS011;42332;52.136;20.666;2023-12-20T12:46:20;7.28;;;3.65;;
56429;SDS011;42332;52.136;20.666;2023-12-20T12:48:46;7.97;;;3.70;;
56429;SDS011;42332;52.136;20.666;2023-12-20T12:51:12;9.93;;;4.30;;
56429;SDS011;42332;52.136;20.666;2023-12-20T12:53:38;4.95;;;3.25;;
56429;SDS011;42332;52.136;20.666;2023-12-20T12:56:04;10.10;;;4.78;;
56429;SDS011;42332;52.136;20.666;2023-12-20T12:58:30;9.18;;;3.10;;
56429;SDS011;42332;52.136;20.666;2023-12-20T13:00:55;11.88;;;5.15;;
56429;SDS011;42332;52.136;20.666;2023-12-20T13:03:21;8.77;;;4.15;;
56429;SDS011;42332;52.136;20.666;2023-12-20T13:05:47;8.63;;;3.45;;
56429;SDS011;42332;52.136;20.666;2023-12-20T13:08:13;8.68;;;3.95;;
56429;SDS011;42332;52.136;20.666;2023-12-20T13:10:39;10.10;;;4.72;;
56429;SDS011;42332;52.136;20.666;2023-12-20T13:13:04;11.82;;;4.28;;
56429;SDS011;42332;52.136;20.666;2023-12-20T13:15:29;10.40;;;3.85;;
56429;SDS011;42332;52.136;20.666;2023-12-20T13:17:55;10.40;;;3.95;;
56429;SDS011;42332;52.136;20.666;2023-12-20T13:20:21;9.32;;;4.20;;
56429;SDS011;42332;52.136;20.666;2023-12-20T13:22:47;10.43;;;5.15;;
56429;SDS011;42332;52.136;20.666;2023-12-20T13:25:12;9.48;;;4.40;;
56429;SDS011;42332;52.136;20.666;2023-12-20T13:27:38;8.15;;;3.97;;
56429;SDS011;42332;52.136;20.666;2023-12-20T13:30:04;8.65;;;4.47;;
56429;SDS011;42332;52.136;20.666;2023-12-20T13:32:30;8.90;;;5.03;;
56429;SDS011;42332;52.136;20.666;2023-12-20T13:34:56;7.03;;;3.38;;
56429;SDS011;42332;52.136;20.666;2023-12-20T13:37:22;9.32;;;4.15;;
56429;SDS011;42332;52.136;20.666;2023-12-20T13:39:48;12.23;;;4.07;;
56429;SDS011;42332;52.136;20.666;2023-12-20T13:42:13;7.20;;;3.90;;
56429;SDS011;42332;52.136;20.666;2023-12-20T13:44:39;15.10;;;5.35;;
56429;SDS011;42332;52.136;20.666;2023-12-20T13:47:05;8.10;;;4.38;;
56429;SDS011;42332;52.136;20.666;2023-12-20T13:49:31;21.30;;;6.85;;
56429;SDS011;42332;52.136;20.666;2023-12-20T13:51:57;14.07;;;5.75;;
56429;SDS011;42332;52.136;20.666;2023-12-20T13:54:22;18.77;;;6.75;;
56429;SDS011;42332;52.136;20.666;2023-12-20T13:56:48;13.35;;;5.18;;
56429;SDS011;42332;52.136;20.666;2023-12-20T13:59:13;13.68;;;5.78;;
56429;SDS011;42332;52.136;20.666;2023-12-20T14:01:40;14.98;;;6.18;;
56429;SDS011;42332;52.136;20.666;2023-12-20T14:04:05;9.10;;;3.42;;
56429;SDS011;42332;52.136;20.666;2023-12-20T14:06:31;15.38;;;5.22;;
56429;SDS011;42332;52.136;20.666;2023-12-20T14:08:57;11.25;;;4.07;;
56429;SDS011;42332;52.136;20.666;2023-12-20T14:11:25;13.23;;;4.35;;
56429;SDS011;42332;52.136;20.666;2023-12-20T14:13:50;18.15;;;3.17;;
56429;SDS011;42332;52.136;20.666;2023-12-20T14:16:16;6.03;;;2.55;;
56429;SDS011;42332;52.136;20.666;2023-12-20T14:18:42;7.10;;;3.17;;
56429;SDS011;42332;52.136;20.666;2023-12-20T14:21:07;6.25;;;2.45;;
56429;SDS011;42332;52.136;20.666;2023-12-20T14:23:32;8.90;;;2.88;;
56429;SDS011;42332;52.136;20.666;2023-12-20T14:25:58;14.35;;;4.57;;
56429;SDS011;42332;52.136;20.666;2023-12-20T14:28:24;14.70;;;5.10;;
56429;SDS011;42332;52.136;20.666;2023-12-20T14:30:50;9.00;;;3.08;;
56429;SDS011;42332;52.136;20.666;2023-12-20T14:33:15;7.38;;;3.83;;
56429;SDS011;42332;52.136;20.666;2023-12-20T14:35:41;14.73;;;3.25;;